createdAt,value
2023-02-17T00:01:25.451Z,13.45
2023-02-17T00:03:27.974Z,13.45
2023-02-17T00:05:31.034Z,13.39
2023-02-17T00:07:33.406Z,13.39
2023-02-17T00:09:38.043Z,13.45
2023-02-17T00:11:39.804Z,13.45
2023-02-17T00:13:41.557Z,13.44
2023-02-17T00:15:43.221Z,13.45
2023-02-17T00:17:44.946Z,13.43
2023-02-17T00:19:46.596Z,13.40
2023-02-17T00:21:50.775Z,13.41
2023-02-17T00:23:53.520Z,13.40
2023-02-17T00:25:55.131Z,13.42
2023-02-17T00:27:56.780Z,13.41
2023-02-17T00:29:58.504Z,13.44
2023-02-17T00:32:00.383Z,13.43
2023-02-17T00:34:02.289Z,13.46
2023-02-17T00:36:06.615Z,13.45
2023-02-17T00:38:09.774Z,13.45
2023-02-17T00:40:11.880Z,13.42
2023-02-17T00:42:13.832Z,13.42
2023-02-17T00:44:22.314Z,13.42
2023-02-17T00:46:24.908Z,13.43
2023-02-17T00:48:29.428Z,13.46
2023-02-17T00:50:31.082Z,13.42
2023-02-17T00:52:32.862Z,13.37
2023-02-17T00:54:35.918Z,13.37
2023-02-17T00:56:37.552Z,13.39
2023-02-17T00:58:39.751Z,13.38
2023-02-17T01:00:41.597Z,13.41
2023-02-17T01:02:43.204Z,13.41
2023-02-17T01:04:45.235Z,13.38
2023-02-17T01:06:47.060Z,13.37
2023-02-17T01:08:48.632Z,13.37
2023-02-17T01:10:52.495Z,13.37
2023-02-17T01:12:54.645Z,13.37
2023-02-17T01:14:56.250Z,13.35
2023-02-17T01:16:57.854Z,13.40
2023-02-17T01:18:59.602Z,13.37
2023-02-17T01:21:01.211Z,13.36
2023-02-17T01:23:03.189Z,13.38
2023-02-17T01:25:05.343Z,13.29
2023-02-17T01:27:08.722Z,13.31
2023-02-17T01:29:10.386Z,13.27
2023-02-17T01:31:12.892Z,13.26
2023-02-17T01:33:14.581Z,13.28
2023-02-17T01:35:16.484Z,13.26
2023-02-17T01:37:18.144Z,13.30
2023-02-17T01:39:19.873Z,13.33
2023-02-17T01:41:23.788Z,13.34
2023-02-17T01:43:28.640Z,13.34
2023-02-17T01:45:37.190Z,13.35
2023-02-17T01:47:38.990Z,13.38
2023-02-17T01:49:41.984Z,13.38
2023-02-17T01:51:47.623Z,13.37
2023-02-17T01:53:53.475Z,13.35
2023-02-17T01:55:56.380Z,13.36
2023-02-17T01:58:01.632Z,13.31
2023-02-17T02:00:05.794Z,13.26
2023-02-17T02:02:08.341Z,13.31
2023-02-17T02:04:10.866Z,13.35
2023-02-17T02:06:18.703Z,13.37
2023-02-17T02:08:20.687Z,13.40
2023-02-17T02:10:22.310Z,13.38
2023-02-17T02:12:25.704Z,13.42
2023-02-17T02:14:28.216Z,13.42
2023-02-17T02:16:39.122Z,13.46
2023-02-17T02:18:54.121Z,13.43
2023-02-17T02:21:14.004Z,13.47
2023-02-17T02:23:56.470Z,13.43
2023-02-17T02:26:18.685Z,13.42
2023-02-17T02:28:32.999Z,13.47
2023-02-17T02:30:55.071Z,13.43
2023-02-17T02:42:10.300Z,13.35
2023-02-17T02:44:15.199Z,13.35
2023-02-17T02:46:16.841Z,13.31
2023-02-17T02:48:18.535Z,13.25
2023-02-17T02:50:27.886Z,13.30
2023-02-17T02:52:39.310Z,13.35
2023-02-17T02:54:52.553Z,13.36
2023-02-17T02:57:14.922Z,13.35
2023-02-17T02:59:26.364Z,13.34
2023-02-17T03:01:36.742Z,13.36
2023-02-17T03:03:47.057Z,13.40
2023-02-17T03:05:56.073Z,13.42
2023-02-17T03:08:03.585Z,13.44
2023-02-17T03:10:07.783Z,13.42
2023-02-17T03:12:10.930Z,13.44
2023-02-17T03:14:14.564Z,13.44
2023-02-17T03:16:16.151Z,13.36
2023-02-17T03:18:19.634Z,13.36
2023-02-17T03:20:21.560Z,13.33
2023-02-17T03:22:29.605Z,13.34
2023-02-17T03:24:31.213Z,13.32
2023-02-17T03:26:33.052Z,13.31
2023-02-17T03:28:36.337Z,13.32
2023-02-17T03:30:38.092Z,13.30
2023-02-17T03:32:40.814Z,13.27
2023-02-17T03:34:42.493Z,13.32
2023-02-17T03:36:44.225Z,13.33
2023-02-17T03:38:45.908Z,13.35
2023-02-17T03:40:47.527Z,13.36
2023-02-17T03:42:49.175Z,13.42
2023-02-17T03:44:52.466Z,13.46
2023-02-17T03:46:54.264Z,13.48
2023-02-17T03:48:57.086Z,13.47
2023-02-17T03:50:59.014Z,13.47
2023-02-17T03:53:00.704Z,13.48
2023-02-17T03:55:02.759Z,13.42
2023-02-17T03:57:04.628Z,13.39
2023-02-17T03:59:06.409Z,13.39
2023-02-17T04:01:11.279Z,13.40
2023-02-17T04:03:12.845Z,13.37
2023-02-17T04:05:16.270Z,13.39
2023-02-17T04:07:18.065Z,13.33
2023-02-17T04:09:19.941Z,13.31
2023-02-17T04:11:21.710Z,13.34
2023-02-17T04:13:23.904Z,13.37
2023-02-17T04:15:25.946Z,13.39
2023-02-17T04:17:30.081Z,13.44
2023-02-17T04:19:31.782Z,13.35
2023-02-17T04:21:33.938Z,13.39
2023-02-17T04:23:38.591Z,13.38
2023-02-17T04:25:41.365Z,13.41
2023-02-17T04:27:43.011Z,13.38
2023-02-17T04:29:44.704Z,13.44
2023-02-17T04:31:49.035Z,13.41
2023-02-17T04:33:52.466Z,13.45
2023-02-17T04:35:54.081Z,13.46
2023-02-17T04:37:56.039Z,13.52
2023-02-17T04:39:59.121Z,13.54
2023-02-17T04:42:00.722Z,13.51
2023-02-17T04:44:02.462Z,13.48
2023-02-17T04:46:07.085Z,13.42
2023-02-17T04:48:09.974Z,13.43
2023-02-17T04:50:13.137Z,13.39
2023-02-17T04:52:14.776Z,13.40
2023-02-17T04:54:17.456Z,13.41
2023-02-17T04:56:19.437Z,13.42
2023-02-17T04:58:21.632Z,13.45
2023-02-17T05:00:23.423Z,13.46
2023-02-17T05:02:25.314Z,13.38
2023-02-17T05:04:29.252Z,13.39
2023-02-17T05:06:32.287Z,13.42
2023-02-17T05:08:33.998Z,13.40
2023-02-17T05:10:35.666Z,13.42
2023-02-17T05:12:37.242Z,13.34
2023-02-17T05:14:38.885Z,13.39
2023-02-17T05:16:40.527Z,13.41
2023-02-17T05:18:42.155Z,13.45
2023-02-17T05:20:44.713Z,13.40
2023-02-17T05:22:47.963Z,13.38
2023-02-17T05:24:49.598Z,13.38
2023-02-17T05:26:51.533Z,13.35
2023-02-17T05:28:53.171Z,13.31
2023-02-17T05:30:55.050Z,13.28
2023-02-17T05:32:57.573Z,13.21
2023-02-17T05:34:59.166Z,13.18
2023-02-17T05:37:00.775Z,13.27
2023-02-17T05:39:03.981Z,13.23
2023-02-17T05:41:06.795Z,13.25
2023-02-17T05:43:08.739Z,13.12
2023-02-17T05:45:10.608Z,13.18
2023-02-17T05:47:12.545Z,13.20
2023-02-17T05:49:14.520Z,13.16
2023-02-17T05:51:18.556Z,13.15
2023-02-17T05:53:20.306Z,13.20
2023-02-17T05:55:23.330Z,13.07
2023-02-17T05:57:25.147Z,13.13
2023-02-17T05:59:26.986Z,13.08
2023-02-17T06:01:28.862Z,13.12
2023-02-17T06:03:30.417Z,13.12
2023-02-17T06:05:32.177Z,13.10
2023-02-17T06:07:33.985Z,13.10
2023-02-17T06:09:35.868Z,13.07
2023-02-17T06:11:38.861Z,13.09
2023-02-17T06:13:40.449Z,13.18
2023-02-17T06:15:42.113Z,13.15
2023-02-17T06:17:44.032Z,13.14
2023-02-17T06:19:45.701Z,13.11
2023-02-17T06:21:47.436Z,13.11
2023-02-17T06:23:49.020Z,13.06
2023-02-17T06:25:50.885Z,13.10
2023-02-17T06:27:53.822Z,13.12
2023-02-17T06:29:55.435Z,13.10
2023-02-17T06:31:57.071Z,13.15
2023-02-17T06:33:58.715Z,13.18
2023-02-17T06:36:00.294Z,13.20
2023-02-17T06:38:02.094Z,13.15
2023-02-17T06:40:04.401Z,13.18
2023-02-17T06:42:05.963Z,13.18
2023-02-17T06:44:09.058Z,13.22
2023-02-17T06:46:10.764Z,13.21
2023-02-17T06:48:12.458Z,13.14
2023-02-17T06:50:14.266Z,13.15
2023-02-17T06:52:15.896Z,13.16
2023-02-17T06:54:17.828Z,13.14
2023-02-17T06:56:21.141Z,13.15
2023-02-17T06:58:23.153Z,13.21
2023-02-17T07:00:26.197Z,13.16
2023-02-17T07:02:27.878Z,13.10
2023-02-17T07:04:29.602Z,13.13
2023-02-17T07:06:31.351Z,13.02
2023-02-17T07:08:34.195Z,13.10
2023-02-17T07:10:37.956Z,13.11
2023-02-17T07:12:39.542Z,13.02
2023-02-17T07:14:41.170Z,13.11
2023-02-17T07:16:44.230Z,13.08
2023-02-17T07:18:45.904Z,13.02
2023-02-17T07:20:47.540Z,13.07
2023-02-17T07:22:49.195Z,13.05
2023-02-17T07:24:50.901Z,13.01
2023-02-17T07:26:52.696Z,13.08
2023-02-17T07:28:54.341Z,12.99
2023-02-17T07:30:56.054Z,13.00
2023-02-17T07:32:59.045Z,12.91
2023-02-17T07:35:00.683Z,12.95
2023-02-17T07:37:02.206Z,12.95
2023-02-17T07:39:03.945Z,12.98
2023-02-17T07:41:07.148Z,12.95
2023-02-17T07:43:08.830Z,12.95
2023-02-17T07:45:10.401Z,12.95
2023-02-17T07:47:12.308Z,12.96
2023-02-17T07:49:15.232Z,12.92
2023-02-17T07:51:18.326Z,12.95
2023-02-17T07:53:19.922Z,12.99
2023-02-17T07:55:21.461Z,12.96
2023-02-17T07:57:23.313Z,12.98
2023-02-17T07:59:24.901Z,12.96
2023-02-17T08:01:26.576Z,12.96
2023-02-17T08:03:28.158Z,12.98
2023-02-17T08:05:31.526Z,12.97
2023-02-17T08:07:33.082Z,13.00
2023-02-17T08:09:34.705Z,13.01
2023-02-17T08:11:36.921Z,12.98
2023-02-17T08:13:38.502Z,12.95
2023-02-17T08:15:40.113Z,12.99
2023-02-17T08:17:41.766Z,13.02
2023-02-17T08:19:48.428Z,12.96
2023-02-17T08:21:52.541Z,12.98
2023-02-17T08:23:54.874Z,12.96
2023-02-17T08:25:57.182Z,13.02
2023-02-17T08:27:59.030Z,12.99
2023-02-17T08:30:00.826Z,13.01
2023-02-17T08:32:02.723Z,13.05
2023-02-17T08:34:08.870Z,12.99
2023-02-17T08:36:11.848Z,12.85
2023-02-17T08:38:14.951Z,12.96
2023-02-17T08:40:17.358Z,13.00
2023-02-17T08:42:19.235Z,12.99
2023-02-17T08:44:20.896Z,13.05
2023-02-17T08:46:22.672Z,13.03
2023-02-17T08:48:24.331Z,13.06
2023-02-17T08:50:29.755Z,13.07
2023-02-17T08:52:31.615Z,13.11
2023-02-17T08:54:34.677Z,13.10
2023-02-17T08:56:38.004Z,13.08
2023-02-17T08:58:39.565Z,13.09
2023-02-17T09:00:46.036Z,13.06
2023-02-17T09:02:47.850Z,13.07
2023-02-17T09:04:49.516Z,13.02
2023-02-17T09:06:54.393Z,13.09
2023-02-17T09:08:56.031Z,13.00
2023-02-17T09:10:59.723Z,13.05
2023-02-17T09:13:01.315Z,13.07
2023-02-17T09:15:03.043Z,13.06
2023-02-17T09:17:05.451Z,13.00
2023-02-17T09:19:07.410Z,13.08
2023-02-17T09:21:11.879Z,13.08
2023-02-17T09:23:13.679Z,13.06
2023-02-17T09:25:15.458Z,13.05
2023-02-17T09:27:18.477Z,13.09
2023-02-17T09:29:20.180Z,13.10
2023-02-17T09:31:24.266Z,13.17
2023-02-17T09:33:27.201Z,13.15
2023-02-17T09:35:29.048Z,13.17
2023-02-17T09:37:30.715Z,13.21
2023-02-17T09:39:32.305Z,13.24
2023-02-17T09:41:43.430Z,13.31
2023-02-17T09:43:46.939Z,13.32
2023-02-17T09:45:52.657Z,13.41
2023-02-17T09:47:59.402Z,13.41
2023-02-17T09:50:06.401Z,13.45
2023-02-17T09:52:13.912Z,13.35
2023-02-17T09:54:21.462Z,13.35
2023-02-17T09:56:28.459Z,13.40
2023-02-17T09:58:34.067Z,13.36
2023-02-17T10:00:42.321Z,13.39
2023-02-17T10:02:51.837Z,13.43
2023-02-17T10:05:00.275Z,13.39
2023-02-17T10:07:07.432Z,13.47
2023-02-17T10:09:15.671Z,13.41
2023-02-17T10:11:28.000Z,13.45
2023-02-17T10:13:34.230Z,13.45
2023-02-17T10:15:41.712Z,13.46
2023-02-17T10:17:51.049Z,13.53
2023-02-17T10:19:57.959Z,13.59
2023-02-17T10:22:06.903Z,13.65
2023-02-17T10:24:08.517Z,13.60
2023-02-17T10:26:19.500Z,13.60
2023-02-17T10:28:24.717Z,13.65
2023-02-17T10:30:32.954Z,13.66
2023-02-17T10:32:53.411Z,13.66
2023-02-17T10:35:12.260Z,13.64
2023-02-17T10:37:17.460Z,13.66
2023-02-17T10:39:59.392Z,13.61
2023-02-17T10:42:02.879Z,13.66
2023-02-17T10:44:08.908Z,13.62
2023-02-17T10:46:14.849Z,13.65
2023-02-17T10:48:20.972Z,13.65
2023-02-17T10:50:24.981Z,13.57
2023-02-17T10:52:36.477Z,13.55
2023-02-17T10:54:42.636Z,13.56
2023-02-17T10:56:50.911Z,13.71
2023-02-17T10:58:57.958Z,13.74
2023-02-17T11:00:59.774Z,13.78
2023-02-17T11:03:01.354Z,13.87
2023-02-17T11:05:04.990Z,13.85
2023-02-17T11:07:12.526Z,13.79
2023-02-17T11:09:19.860Z,13.82
2023-02-17T11:11:23.238Z,13.95
2023-02-17T11:13:31.732Z,13.93
2023-02-17T11:15:36.914Z,13.97
2023-02-17T11:17:40.746Z,13.97
2023-02-17T11:19:42.629Z,13.97
2023-02-17T11:21:46.790Z,14.01
2023-02-17T11:23:51.795Z,14.01
2023-02-17T11:26:16.607Z,14.01
2023-02-17T11:28:24.037Z,14.11
2023-02-17T11:30:27.761Z,14.11
2023-02-17T11:32:31.390Z,14.16
2023-02-17T11:34:35.368Z,14.15
2023-02-17T11:36:40.462Z,14.13
2023-02-17T11:38:45.817Z,14.20
2023-02-17T11:40:58.773Z,14.20
2023-02-17T11:43:01.692Z,14.18
2023-02-17T11:45:22.134Z,14.12
2023-02-17T11:47:34.836Z,14.24
2023-02-17T11:50:01.258Z,14.27
2023-02-17T11:52:15.690Z,14.25
2023-02-17T11:54:23.892Z,14.19
2023-02-17T11:56:32.865Z,14.17
2023-02-17T11:58:49.048Z,14.25
2023-02-17T12:01:02.054Z,14.27
2023-02-17T12:03:39.496Z,14.30
2023-02-17T12:05:55.462Z,14.28
2023-02-17T12:08:12.819Z,14.32
2023-02-17T12:10:25.550Z,14.38
2023-02-17T12:12:36.717Z,14.34
2023-02-17T12:15:10.739Z,14.36
2023-02-17T12:17:19.840Z,14.34
2023-02-17T12:19:38.638Z,14.41
2023-02-17T12:21:50.405Z,14.46
2023-02-17T12:24:07.220Z,14.51
2023-02-17T12:26:21.517Z,14.48
2023-02-17T12:28:48.071Z,14.53
2023-02-17T12:31:00.522Z,14.60
2023-02-17T12:33:15.651Z,14.61
2023-02-17T12:35:22.373Z,14.57
2023-02-17T12:37:26.944Z,14.59
2023-02-17T12:39:34.389Z,14.54
2023-02-17T12:41:41.114Z,14.58
2023-02-17T12:43:48.800Z,14.60
2023-02-17T12:45:52.031Z,14.58
2023-02-17T12:47:59.854Z,14.59
2023-02-17T12:50:05.282Z,14.58
2023-02-17T12:52:13.807Z,14.54
2023-02-17T12:54:21.626Z,14.71
2023-02-17T12:56:46.723Z,14.77
2023-02-17T12:58:49.625Z,14.75
2023-02-17T13:00:54.899Z,14.83
2023-02-17T13:02:57.751Z,14.86
2023-02-17T13:05:05.253Z,14.89
2023-02-17T13:07:20.262Z,14.86
2023-02-17T13:09:30.382Z,14.92
2023-02-17T13:11:34.166Z,14.98
2023-02-17T13:13:40.509Z,14.94
2023-02-17T13:15:43.731Z,14.99
2023-02-17T13:17:55.102Z,15.02
2023-02-17T13:20:22.771Z,15.01
2023-02-17T13:22:24.712Z,15.05
2023-02-17T13:24:34.743Z,15.04
2023-02-17T13:26:38.307Z,14.95
2023-02-17T13:28:41.617Z,14.99
2023-02-17T13:30:45.797Z,14.98
2023-02-17T13:32:59.674Z,14.99
2023-02-17T13:35:03.412Z,15.05
2023-02-17T13:37:18.235Z,15.20
2023-02-17T13:39:33.012Z,14.89
2023-02-17T13:41:45.831Z,15.07
2023-02-17T13:43:49.187Z,15.13
2023-02-17T13:45:57.272Z,15.10
2023-02-17T13:48:00.749Z,15.14
2023-02-17T13:50:02.868Z,15.10
2023-02-17T13:52:10.219Z,15.12
2023-02-17T13:54:12.605Z,15.16
2023-02-17T13:56:26.923Z,15.13
2023-02-17T13:58:30.470Z,15.12
2023-02-17T14:00:34.013Z,15.14
2023-02-17T14:02:38.946Z,15.11
2023-02-17T14:04:40.758Z,15.14
2023-02-17T14:06:43.030Z,15.08
2023-02-17T14:08:44.614Z,15.11
2023-02-17T14:10:46.749Z,15.11
2023-02-17T14:12:48.801Z,15.09
2023-02-17T14:14:50.599Z,15.16
2023-02-17T14:17:02.183Z,15.14
2023-02-17T14:19:05.952Z,15.11
2023-02-17T14:21:09.916Z,15.08
2023-02-17T14:23:13.930Z,15.12
2023-02-17T14:25:27.041Z,15.20
2023-02-17T14:27:29.048Z,15.14
2023-02-17T14:29:41.163Z,15.16
2023-02-17T14:31:44.861Z,15.14
2023-02-17T14:33:57.521Z,15.15
2023-02-17T14:36:01.026Z,15.20
2023-02-17T14:38:18.891Z,15.19
2023-02-17T14:40:23.441Z,15.15
2023-02-17T14:42:24.965Z,15.14
2023-02-17T14:44:26.568Z,15.20
2023-02-17T14:46:28.338Z,15.18
2023-02-17T14:48:29.991Z,15.23
2023-02-17T14:50:33.617Z,15.20
2023-02-17T14:52:41.545Z,15.11
2023-02-17T14:54:43.097Z,15.15
2023-02-17T14:56:49.264Z,15.10
2023-02-17T14:58:51.100Z,15.12
2023-02-17T15:00:52.712Z,15.05
2023-02-17T15:02:54.398Z,15.07
2023-02-17T15:04:56.020Z,15.07
2023-02-17T15:06:59.045Z,15.10
2023-02-17T15:09:01.133Z,15.10
2023-02-17T15:11:02.944Z,15.10
2023-02-17T15:13:04.519Z,15.13
2023-02-17T15:15:06.655Z,14.87
2023-02-17T15:17:08.579Z,14.93
2023-02-17T15:19:10.755Z,14.95
2023-02-17T15:21:22.415Z,14.83
2023-02-17T15:23:25.521Z,14.73
2023-02-17T15:25:31.069Z,14.75
2023-02-17T15:27:32.645Z,14.73
2023-02-17T15:29:34.274Z,14.75
2023-02-17T15:31:35.915Z,14.83
2023-02-17T15:33:45.254Z,14.68
2023-02-17T15:35:47.642Z,14.64
2023-02-17T15:37:50.177Z,14.64
2023-02-17T15:39:53.101Z,14.54
2023-02-17T15:41:57.077Z,14.50
2023-02-17T15:43:58.687Z,14.46
2023-02-17T15:46:00.528Z,14.50
2023-02-17T15:48:04.814Z,14.44
2023-02-17T15:50:12.689Z,14.41
2023-02-17T15:52:15.489Z,14.53
2023-02-17T15:54:17.180Z,14.54
2023-02-17T15:56:21.873Z,14.46
2023-02-17T15:58:23.563Z,14.47
2023-02-17T16:00:27.147Z,14.55
2023-02-17T16:02:29.178Z,14.54
2023-02-17T16:04:30.752Z,14.52
2023-02-17T16:06:32.302Z,14.49
2023-02-17T16:08:33.846Z,14.53
2023-02-17T16:10:36.210Z,14.57
2023-02-17T16:12:40.007Z,14.61
2023-02-17T16:14:41.811Z,14.65
2023-02-17T16:16:43.515Z,14.64
2023-02-17T16:18:46.129Z,14.65
2023-02-17T16:20:48.320Z,14.65
2023-02-17T16:22:51.016Z,14.70
2023-02-17T16:24:52.546Z,14.55
2023-02-17T16:26:54.164Z,14.59
2023-02-17T16:28:57.997Z,14.59
2023-02-17T16:30:59.528Z,14.58
2023-02-17T16:33:01.809Z,14.61
2023-02-17T16:35:03.429Z,14.65
2023-02-17T16:37:12.984Z,14.52
2023-02-17T16:39:16.415Z,14.41
2023-02-17T16:41:19.760Z,14.44
2023-02-17T16:43:23.079Z,14.55
2023-02-17T16:45:28.093Z,14.60
2023-02-17T16:47:30.462Z,14.54
2023-02-17T16:49:35.887Z,14.49
2023-02-17T16:51:37.454Z,14.53
2023-02-17T16:53:39.175Z,14.54
2023-02-17T16:55:41.316Z,14.55
2023-02-17T16:57:44.775Z,14.60
2023-02-17T16:59:47.139Z,14.61
2023-02-17T17:01:51.113Z,14.57
2023-02-17T17:03:52.904Z,14.49
2023-02-17T17:05:55.095Z,14.47
2023-02-17T17:07:56.958Z,14.54
2023-02-17T17:10:15.440Z,14.53
2023-02-17T17:12:23.567Z,14.52
2023-02-17T17:14:25.257Z,14.55
2023-02-17T17:16:30.153Z,14.56
2023-02-17T17:18:33.207Z,14.55
2023-02-17T17:20:37.418Z,14.59
2023-02-17T17:22:39.326Z,14.60
2023-02-17T17:24:40.914Z,14.57
2023-02-17T17:26:45.030Z,14.50
2023-02-17T17:28:53.596Z,14.56
2023-02-17T17:30:55.202Z,14.50
2023-02-17T17:32:57.272Z,14.48
2023-02-17T17:35:01.021Z,14.55
2023-02-17T17:37:02.909Z,14.52
2023-02-17T17:39:06.523Z,14.48
2023-02-17T17:41:11.255Z,14.54
2023-02-17T17:43:12.948Z,14.59
2023-02-17T17:45:15.840Z,14.57
2023-02-17T17:47:29.413Z,14.46
2023-02-17T17:49:31.961Z,14.48
2023-02-17T17:51:35.036Z,14.49
2023-02-17T17:53:36.667Z,14.52
2023-02-17T17:55:38.370Z,14.61
2023-02-17T17:57:40.407Z,14.57
2023-02-17T17:59:41.952Z,14.49
2023-02-17T18:01:45.764Z,14.55
2023-02-17T18:03:48.430Z,14.62
2023-02-17T18:05:50.150Z,14.59
2023-02-17T18:07:53.340Z,14.60
2023-02-17T18:09:55.578Z,14.56
2023-02-17T18:12:01.314Z,14.57
2023-02-17T18:14:09.302Z,14.57
2023-02-17T18:16:12.858Z,14.56
2023-02-17T18:18:14.958Z,14.49
2023-02-17T18:20:16.833Z,14.53
2023-02-17T18:22:18.506Z,14.47
2023-02-17T18:24:21.516Z,14.49
2023-02-17T18:26:23.304Z,14.60
2023-02-17T18:28:24.967Z,14.57
2023-02-17T18:30:26.907Z,14.60
2023-02-17T18:32:31.616Z,14.68
2023-02-17T18:34:36.042Z,14.66
2023-02-17T18:36:37.616Z,14.66
2023-02-17T18:38:41.659Z,14.72
2023-02-17T18:40:44.635Z,14.70
2023-02-17T18:42:46.422Z,14.71
2023-02-17T18:44:48.078Z,14.73
2023-02-17T18:46:49.766Z,14.71
2023-02-17T18:48:51.340Z,14.71
2023-02-17T18:50:52.875Z,14.67
2023-02-17T18:52:54.466Z,14.71
2023-02-17T18:54:56.049Z,14.73
2023-02-17T18:56:59.005Z,14.80
2023-02-17T18:59:00.592Z,14.85
2023-02-17T19:01:02.200Z,14.77
2023-02-17T19:03:03.831Z,14.73
2023-02-17T19:05:07.029Z,14.77
2023-02-17T19:07:08.648Z,14.75
2023-02-17T19:09:10.361Z,14.84
2023-02-17T19:11:12.409Z,14.80
2023-02-17T19:13:15.633Z,14.78
2023-02-17T19:15:17.290Z,14.68
2023-02-17T19:17:19.105Z,14.73
2023-02-17T19:19:20.886Z,14.68
2023-02-17T19:21:22.830Z,14.68
2023-02-17T19:23:24.474Z,14.73
2023-02-17T19:25:26.085Z,14.73
2023-02-17T19:27:28.568Z,14.81
2023-02-17T19:29:31.746Z,14.78
2023-02-17T19:31:33.571Z,14.77
2023-02-17T19:33:35.445Z,14.77
2023-02-17T19:35:40.441Z,14.78
2023-02-17T19:37:42.043Z,14.77
2023-02-17T19:39:43.633Z,14.81
2023-02-17T19:41:45.309Z,14.83
2023-02-17T19:43:47.042Z,14.84
2023-02-17T19:45:50.090Z,14.80
2023-02-17T19:47:51.753Z,14.85
2023-02-17T19:49:53.444Z,14.87
2023-02-17T19:51:55.081Z,14.94
2023-02-17T19:53:57.089Z,15.02
2023-02-17T19:56:08.041Z,15.02
2023-02-17T19:58:10.759Z,14.99
2023-02-17T20:00:13.291Z,14.95
2023-02-17T20:02:16.546Z,15.01
2023-02-17T20:04:18.254Z,14.95
2023-02-17T20:06:22.103Z,14.94
2023-02-17T20:08:23.768Z,14.94
2023-02-17T20:10:25.345Z,14.95
2023-02-17T20:12:27.117Z,14.98
2023-02-17T20:14:28.778Z,14.93
2023-02-17T20:16:31.100Z,14.94
2023-02-17T20:18:35.415Z,14.91
2023-02-17T20:20:37.024Z,14.92
2023-02-17T20:22:39.287Z,14.95
2023-02-17T20:24:40.888Z,14.98
2023-02-17T20:26:45.520Z,14.87
2023-02-17T20:28:47.709Z,14.90
2023-02-17T20:30:49.508Z,14.89
2023-02-17T20:32:51.186Z,14.92
2023-02-17T20:34:54.132Z,14.88
2023-02-17T20:36:56.434Z,14.87
2023-02-17T20:39:01.909Z,14.88
2023-02-17T20:41:08.936Z,14.92
2023-02-17T20:43:10.936Z,14.93
2023-02-17T20:45:12.627Z,14.89
2023-02-17T20:47:14.198Z,14.88
2023-02-17T20:49:15.820Z,14.90
2023-02-17T20:51:19.370Z,14.84
2023-02-17T20:53:21.167Z,14.81
2023-02-17T20:55:25.981Z,14.77
2023-02-17T20:57:28.713Z,14.87
2023-02-17T20:59:30.354Z,14.90
2023-02-17T21:01:32.404Z,15.01
2023-02-17T21:03:34.225Z,14.98
2023-02-17T21:05:36.832Z,14.95
2023-02-17T21:07:40.575Z,14.96
2023-02-17T21:09:42.200Z,14.96
2023-02-17T21:11:44.431Z,14.95
2023-02-17T21:13:46.458Z,14.95
2023-02-17T21:15:48.817Z,14.91
2023-02-17T21:17:50.583Z,14.92
2023-02-17T21:19:52.176Z,14.86
2023-02-17T21:21:53.823Z,14.90
2023-02-17T21:23:58.186Z,14.83
2023-02-17T21:25:59.798Z,14.85
2023-02-17T21:28:01.394Z,14.91
2023-02-17T21:30:03.595Z,14.98
2023-02-17T21:32:05.347Z,14.99
2023-02-17T21:34:06.983Z,14.99
2023-02-17T21:36:09.805Z,15.02
2023-02-17T21:38:11.587Z,15.01
2023-02-17T21:40:14.752Z,14.92
2023-02-17T21:42:16.373Z,14.89
2023-02-17T21:44:17.972Z,14.90
2023-02-17T21:46:19.758Z,14.93
2023-02-17T21:48:21.437Z,15.01
2023-02-17T21:50:23.031Z,15.03
2023-02-17T21:52:24.725Z,14.96
2023-02-17T21:54:26.320Z,14.99
2023-02-17T21:56:31.386Z,15.02
2023-02-17T21:58:36.178Z,15.04
2023-02-17T22:00:37.800Z,14.94
2023-02-17T22:02:39.758Z,15.00
2023-02-17T22:04:41.375Z,15.03
2023-02-17T22:06:44.223Z,15.07
2023-02-17T22:08:46.226Z,15.10
2023-02-17T22:13:08.521Z,15.16
2023-02-17T22:15:10.587Z,15.15
2023-02-17T22:17:12.114Z,15.11
2023-02-17T22:19:17.206Z,15.10
2023-02-17T22:21:18.904Z,15.05
2023-02-17T22:23:20.497Z,15.09
2023-02-17T22:25:22.418Z,15.05
2023-02-17T22:27:24.033Z,15.07
2023-02-17T22:29:26.963Z,15.09
2023-02-17T22:31:30.080Z,15.08
2023-02-17T22:33:32.493Z,15.04
2023-02-17T22:35:34.107Z,15.08
2023-02-17T22:37:36.584Z,15.07
2023-02-17T22:39:38.162Z,14.94
2023-02-17T22:41:39.722Z,14.99
2023-02-17T22:43:42.388Z,15.03
2023-02-17T22:45:45.375Z,15.03
2023-02-17T22:47:51.249Z,15.02
2023-02-17T22:49:52.835Z,15.04
2023-02-17T22:51:54.467Z,15.04
2023-02-17T22:53:57.019Z,15.00
2023-02-17T22:55:58.690Z,14.93
2023-02-17T22:58:00.230Z,14.93
2023-02-17T23:00:01.894Z,14.87
2023-02-17T23:02:04.902Z,14.91
2023-02-17T23:04:08.487Z,14.85
2023-02-17T23:06:12.234Z,14.90
2023-02-17T23:08:13.835Z,14.91
2023-02-17T23:10:15.417Z,14.94
2023-02-17T23:12:17.001Z,14.89
2023-02-17T23:14:21.113Z,14.92
2023-02-17T23:16:22.696Z,14.89
2023-02-17T23:18:25.619Z,14.87
2023-02-17T23:20:27.226Z,14.98
2023-02-17T23:22:28.918Z,14.99
2023-02-17T23:24:30.783Z,15.01
2023-02-17T23:26:32.348Z,14.97
2023-02-17T23:28:36.647Z,14.93
2023-02-17T23:30:41.274Z,14.96
2023-02-17T23:32:42.964Z,14.92
2023-02-17T23:34:45.936Z,14.99
2023-02-17T23:36:47.566Z,14.97
2023-02-17T23:38:49.131Z,14.86
2023-02-17T23:40:52.047Z,14.96
2023-02-17T23:42:53.634Z,15.07
2023-02-17T23:44:55.185Z,15.05
2023-02-17T23:46:56.886Z,15.08
2023-02-17T23:48:58.640Z,15.09
2023-02-17T23:51:03.990Z,15.09
2023-02-17T23:53:05.612Z,15.09
2023-02-17T23:55:08.061Z,15.03
2023-02-17T23:57:09.625Z,15.05
2023-02-17T23:59:11.655Z,15.09
